Terminal Aerodrome Forecast
Issued by NWS

Home | Current Version | Previous Version | Text Only | Print | Product List | Glossary On
Versions: 1 2 3 4 5 6 7 8 9 10 11 12 13
000
FTUS46 KPDT 222300
TAFYKM
TAF
KYKM 222320Z 2300/2324 VRB06KT P6SM VCSH BKN080
     FM230800 26008KT P6SM BKN150
     FM231200 26008KT P6SM OVC080
     FM231500 28010KT P6SM BKN100
     FM232000 25012KT P6SM VCSH BKN100=

USA.gov is the U.S. government's official web portal to all federal, state and local government web resources and services.